sensor_id;sensor_type;location;lat;lon;timestamp;P1;durP1;ratioP1;P2;durP2;ratioP2
870;SDS011;422;51.280;7.236;2023-04-03T00:01:04;10.27;;;9.27;;
870;SDS011;422;51.280;7.236;2023-04-03T00:03:32;9.53;;;8.63;;
870;SDS011;422;51.280;7.236;2023-04-03T00:06:00;10.10;;;9.00;;
870;SDS011;422;51.280;7.236;2023-04-03T00:08:28;12.10;;;9.30;;
870;SDS011;422;51.280;7.236;2023-04-03T00:10:57;9.97;;;9.00;;
870;SDS011;422;51.280;7.236;2023-04-03T00:13:25;16.73;;;10.73;;
870;SDS011;422;51.280;7.236;2023-04-03T00:15:52;14.67;;;12.43;;
870;SDS011;422;51.280;7.236;2023-04-03T00:18:21;14.70;;;11.10;;
870;SDS011;422;51.280;7.236;2023-04-03T00:20:48;20.40;;;12.80;;
870;SDS011;422;51.280;7.236;2023-04-03T00:23:16;16.60;;;12.50;;
870;SDS011;422;51.280;7.236;2023-04-03T00:25:43;16.07;;;11.70;;
870;SDS011;422;51.280;7.236;2023-04-03T00:28:10;12.20;;;10.87;;
870;SDS011;422;51.280;7.236;2023-04-03T00:30:38;12.70;;;10.30;;
870;SDS011;422;51.280;7.236;2023-04-03T00:33:05;12.00;;;9.97;;
870;SDS011;422;51.280;7.236;2023-04-03T00:35:36;16.87;;;11.47;;
870;SDS011;422;51.280;7.236;2023-04-03T00:38:04;13.50;;;11.13;;
870;SDS011;422;51.280;7.236;2023-04-03T00:40:33;13.73;;;11.40;;
870;SDS011;422;51.280;7.236;2023-04-03T00:43:01;14.50;;;11.83;;
870;SDS011;422;51.280;7.236;2023-04-03T00:45:37;16.73;;;12.73;;
870;SDS011;422;51.280;7.236;2023-04-03T00:48:06;17.87;;;14.17;;
870;SDS011;422;51.280;7.236;2023-04-03T00:50:38;19.20;;;14.27;;
870;SDS011;422;51.280;7.236;2023-04-03T00:53:08;15.30;;;13.53;;
870;SDS011;422;51.280;7.236;2023-04-03T00:55:39;16.73;;;14.10;;
870;SDS011;422;51.280;7.236;2023-04-03T00:58:09;16.10;;;14.43;;
870;SDS011;422;51.280;7.236;2023-04-03T01:00:38;16.43;;;14.60;;
870;SDS011;422;51.280;7.236;2023-04-03T01:03:10;17.10;;;15.30;;
870;SDS011;422;51.280;7.236;2023-04-03T01:05:38;16.70;;;14.50;;
870;SDS011;422;51.280;7.236;2023-04-03T01:08:06;18.93;;;14.63;;
870;SDS011;422;51.280;7.236;2023-04-03T01:10:33;17.90;;;16.10;;
870;SDS011;422;51.280;7.236;2023-04-03T01:13:01;19.07;;;15.60;;
870;SDS011;422;51.280;7.236;2023-04-03T01:15:43;17.90;;;16.00;;
870;SDS011;422;51.280;7.236;2023-04-03T01:18:10;15.77;;;14.07;;
870;SDS011;422;51.280;7.236;2023-04-03T01:21:00;16.70;;;14.93;;
870;SDS011;422;51.280;7.236;2023-04-03T01:24:07;15.07;;;13.13;;
870;SDS011;422;51.280;7.236;2023-04-03T01:26:52;16.80;;;11.97;;
870;SDS011;422;51.280;7.236;2023-04-03T01:29:19;16.63;;;13.20;;
870;SDS011;422;51.280;7.236;2023-04-03T01:31:49;15.37;;;13.57;;
870;SDS011;422;51.280;7.236;2023-04-03T01:34:19;16.93;;;14.07;;
870;SDS011;422;51.280;7.236;2023-04-03T01:36:46;14.57;;;13.07;;
870;SDS011;422;51.280;7.236;2023-04-03T01:39:14;15.20;;;13.53;;
870;SDS011;422;51.280;7.236;2023-04-03T01:41:41;17.10;;;15.30;;
870;SDS011;422;51.280;7.236;2023-04-03T01:44:11;15.03;;;13.10;;
870;SDS011;422;51.280;7.236;2023-04-03T01:46:39;17.10;;;12.70;;
870;SDS011;422;51.280;7.236;2023-04-03T01:49:08;15.00;;;12.67;;
870;SDS011;422;51.280;7.236;2023-04-03T01:51:36;16.83;;;13.53;;
870;SDS011;422;51.280;7.236;2023-04-03T01:54:03;17.40;;;12.83;;
870;SDS011;422;51.280;7.236;2023-04-03T01:56:33;15.90;;;12.33;;
870;SDS011;422;51.280;7.236;2023-04-03T01:59:00;13.57;;;11.30;;
870;SDS011;422;51.280;7.236;2023-04-03T02:01:27;14.40;;;11.27;;
870;SDS011;422;51.280;7.236;2023-04-03T02:03:54;12.53;;;10.97;;
870;SDS011;422;51.280;7.236;2023-04-03T02:06:22;11.60;;;10.50;;
870;SDS011;422;51.280;7.236;2023-04-03T02:08:50;11.93;;;8.77;;
870;SDS011;422;51.280;7.236;2023-04-03T02:11:18;14.00;;;9.47;;
870;SDS011;422;51.280;7.236;2023-04-03T02:13:45;11.33;;;8.57;;
870;SDS011;422;51.280;7.236;2023-04-03T02:16:12;11.00;;;8.60;;
870;SDS011;422;51.280;7.236;2023-04-03T02:18:39;9.47;;;7.93;;
870;SDS011;422;51.280;7.236;2023-04-03T02:21:07;9.80;;;8.57;;
870;SDS011;422;51.280;7.236;2023-04-03T02:23:35;10.20;;;8.50;;
870;SDS011;422;51.280;7.236;2023-04-03T02:26:03;14.47;;;11.13;;
870;SDS011;422;51.280;7.236;2023-04-03T02:28:32;12.00;;;10.50;;
870;SDS011;422;51.280;7.236;2023-04-03T02:31:00;15.93;;;11.40;;
870;SDS011;422;51.280;7.236;2023-04-03T02:33:28;12.50;;;10.67;;
870;SDS011;422;51.280;7.236;2023-04-03T02:35:56;15.13;;;11.40;;
870;SDS011;422;51.280;7.236;2023-04-03T02:38:24;16.77;;;11.07;;
870;SDS011;422;51.280;7.236;2023-04-03T02:40:55;12.17;;;10.10;;
870;SDS011;422;51.280;7.236;2023-04-03T02:43:28;13.33;;;11.50;;
870;SDS011;422;51.280;7.236;2023-04-03T02:45:55;14.63;;;10.90;;
870;SDS011;422;51.280;7.236;2023-04-03T02:48:22;13.47;;;10.50;;
870;SDS011;422;51.280;7.236;2023-04-03T02:50:50;16.33;;;11.17;;
870;SDS011;422;51.280;7.236;2023-04-03T02:53:17;11.43;;;10.00;;
870;SDS011;422;51.280;7.236;2023-04-03T02:55:45;13.67;;;10.30;;
870;SDS011;422;51.280;7.236;2023-04-03T02:58:14;15.00;;;10.10;;
870;SDS011;422;51.280;7.236;2023-04-03T03:00:41;10.83;;;9.73;;
870;SDS011;422;51.280;7.236;2023-04-03T03:03:08;13.23;;;10.53;;
870;SDS011;422;51.280;7.236;2023-04-03T03:05:36;11.23;;;9.23;;
870;SDS011;422;51.280;7.236;2023-04-03T03:08:03;9.83;;;8.73;;
870;SDS011;422;51.280;7.236;2023-04-03T03:10:30;15.00;;;9.83;;
870;SDS011;422;51.280;7.236;2023-04-03T03:12:57;11.40;;;9.10;;
870;SDS011;422;51.280;7.236;2023-04-03T03:15:26;10.13;;;7.70;;
870;SDS011;422;51.280;7.236;2023-04-03T03:17:53;11.27;;;8.67;;
870;SDS011;422;51.280;7.236;2023-04-03T03:20:21;10.13;;;8.97;;
870;SDS011;422;51.280;7.236;2023-04-03T03:22:48;12.13;;;8.63;;
870;SDS011;422;51.280;7.236;2023-04-03T03:25:15;15.03;;;9.40;;
870;SDS011;422;51.280;7.236;2023-04-03T03:27:42;15.90;;;10.00;;
870;SDS011;422;51.280;7.236;2023-04-03T03:30:11;12.90;;;8.97;;
870;SDS011;422;51.280;7.236;2023-04-03T03:32:40;9.47;;;8.47;;
870;SDS011;422;51.280;7.236;2023-04-03T03:35:09;12.33;;;9.70;;
870;SDS011;422;51.280;7.236;2023-04-03T03:37:36;10.63;;;9.53;;
870;SDS011;422;51.280;7.236;2023-04-03T03:40:03;15.37;;;9.17;;
870;SDS011;422;51.280;7.236;2023-04-03T03:42:32;11.20;;;8.80;;
870;SDS011;422;51.280;7.236;2023-04-03T03:44:59;13.40;;;10.27;;
870;SDS011;422;51.280;7.236;2023-04-03T03:47:26;11.20;;;8.43;;
870;SDS011;422;51.280;7.236;2023-04-03T03:49:57;8.90;;;8.00;;
870;SDS011;422;51.280;7.236;2023-04-03T03:52:24;10.53;;;8.87;;
870;SDS011;422;51.280;7.236;2023-04-03T03:54:51;11.37;;;8.97;;
870;SDS011;422;51.280;7.236;2023-04-03T03:57:18;11.57;;;9.10;;
870;SDS011;422;51.280;7.236;2023-04-03T03:59:46;10.63;;;8.27;;
870;SDS011;422;51.280;7.236;2023-04-03T04:02:14;14.73;;;8.23;;
870;SDS011;422;51.280;7.236;2023-04-03T04:04:41;12.07;;;8.40;;
870;SDS011;422;51.280;7.236;2023-04-03T04:07:10;8.93;;;8.03;;
870;SDS011;422;51.280;7.236;2023-04-03T04:09:37;10.07;;;7.70;;
870;SDS011;422;51.280;7.236;2023-04-03T04:12:04;10.33;;;8.53;;
870;SDS011;422;51.280;7.236;2023-04-03T04:14:31;9.87;;;8.40;;
870;SDS011;422;51.280;7.236;2023-04-03T04:16:58;8.17;;;7.00;;
870;SDS011;422;51.280;7.236;2023-04-03T04:19:28;13.60;;;7.50;;
870;SDS011;422;51.280;7.236;2023-04-03T04:21:55;8.97;;;7.10;;
870;SDS011;422;51.280;7.236;2023-04-03T04:24:24;9.97;;;7.30;;
870;SDS011;422;51.280;7.236;2023-04-03T04:26:51;9.23;;;8.20;;
870;SDS011;422;51.280;7.236;2023-04-03T04:29:19;9.10;;;8.10;;
870;SDS011;422;51.280;7.236;2023-04-03T04:31:46;10.80;;;8.80;;
870;SDS011;422;51.280;7.236;2023-04-03T04:34:13;13.23;;;8.20;;
870;SDS011;422;51.280;7.236;2023-04-03T04:36:41;10.63;;;8.27;;
870;SDS011;422;51.280;7.236;2023-04-03T04:39:08;11.93;;;8.90;;
870;SDS011;422;51.280;7.236;2023-04-03T04:41:37;10.60;;;7.67;;
870;SDS011;422;51.280;7.236;2023-04-03T04:44:04;11.80;;;7.70;;
870;SDS011;422;51.280;7.236;2023-04-03T04:46:31;12.23;;;7.60;;
870;SDS011;422;51.280;7.236;2023-04-03T04:48:59;11.30;;;6.67;;
870;SDS011;422;51.280;7.236;2023-04-03T04:51:26;11.37;;;8.77;;
870;SDS011;422;51.280;7.236;2023-04-03T04:53:53;7.50;;;6.53;;
870;SDS011;422;51.280;7.236;2023-04-03T04:56:21;11.83;;;7.20;;
870;SDS011;422;51.280;7.236;2023-04-03T04:58:49;14.13;;;7.20;;
870;SDS011;422;51.280;7.236;2023-04-03T05:01:16;8.33;;;6.20;;
870;SDS011;422;51.280;7.236;2023-04-03T05:03:44;9.90;;;7.23;;
870;SDS011;422;51.280;7.236;2023-04-03T05:06:12;10.80;;;7.03;;
870;SDS011;422;51.280;7.236;2023-04-03T05:08:40;10.30;;;6.27;;
870;SDS011;422;51.280;7.236;2023-04-03T05:11:07;8.63;;;6.40;;
870;SDS011;422;51.280;7.236;2023-04-03T05:13:34;8.27;;;6.50;;
870;SDS011;422;51.280;7.236;2023-04-03T05:16:03;8.63;;;6.43;;
870;SDS011;422;51.280;7.236;2023-04-03T05:18:31;8.43;;;6.37;;
870;SDS011;422;51.280;7.236;2023-04-03T05:20:58;9.97;;;6.80;;
870;SDS011;422;51.280;7.236;2023-04-03T05:23:26;10.43;;;6.90;;
870;SDS011;422;51.280;7.236;2023-04-03T05:25:53;10.60;;;6.07;;
870;SDS011;422;51.280;7.236;2023-04-03T05:28:21;8.20;;;5.93;;
870;SDS011;422;51.280;7.236;2023-04-03T05:30:52;10.70;;;7.30;;
870;SDS011;422;51.280;7.236;2023-04-03T05:33:22;8.27;;;6.00;;
870;SDS011;422;51.280;7.236;2023-04-03T05:35:49;7.90;;;5.80;;
870;SDS011;422;51.280;7.236;2023-04-03T05:38:17;12.20;;;5.87;;
870;SDS011;422;51.280;7.236;2023-04-03T05:40:45;7.33;;;5.60;;
870;SDS011;422;51.280;7.236;2023-04-03T05:43:12;10.63;;;6.80;;
870;SDS011;422;51.280;7.236;2023-04-03T05:45:40;12.63;;;7.87;;
870;SDS011;422;51.280;7.236;2023-04-03T05:48:08;12.33;;;7.50;;
870;SDS011;422;51.280;7.236;2023-04-03T05:50:37;10.00;;;7.17;;
870;SDS011;422;51.280;7.236;2023-04-03T05:53:06;10.43;;;6.60;;
870;SDS011;422;51.280;7.236;2023-04-03T05:55:37;10.43;;;6.53;;
870;SDS011;422;51.280;7.236;2023-04-03T05:58:04;9.93;;;6.57;;
870;SDS011;422;51.280;7.236;2023-04-03T06:00:32;11.17;;;6.37;;
870;SDS011;422;51.280;7.236;2023-04-03T06:02:59;12.90;;;6.23;;
870;SDS011;422;51.280;7.236;2023-04-03T06:05:26;13.40;;;5.60;;
870;SDS011;422;51.280;7.236;2023-04-03T06:07:55;9.40;;;5.27;;
870;SDS011;422;51.280;7.236;2023-04-03T06:10:22;9.80;;;6.03;;
870;SDS011;422;51.280;7.236;2023-04-03T06:12:50;9.50;;;5.10;;
870;SDS011;422;51.280;7.236;2023-04-03T06:15:17;9.70;;;5.60;;
870;SDS011;422;51.280;7.236;2023-04-03T06:17:45;12.43;;;5.63;;
870;SDS011;422;51.280;7.236;2023-04-03T06:20:15;8.90;;;5.00;;
870;SDS011;422;51.280;7.236;2023-04-03T06:22:42;10.50;;;4.67;;
870;SDS011;422;51.280;7.236;2023-04-03T06:25:11;6.80;;;4.87;;
870;SDS011;422;51.280;7.236;2023-04-03T06:27:39;12.73;;;5.03;;
870;SDS011;422;51.280;7.236;2023-04-03T06:30:07;9.33;;;4.53;;
870;SDS011;422;51.280;7.236;2023-04-03T06:32:36;9.80;;;5.30;;
870;SDS011;422;51.280;7.236;2023-04-03T06:35:03;9.90;;;4.97;;
870;SDS011;422;51.280;7.236;2023-04-03T06:37:32;6.67;;;4.67;;
870;SDS011;422;51.280;7.236;2023-04-03T06:39:59;11.53;;;4.93;;
870;SDS011;422;51.280;7.236;2023-04-03T06:42:28;6.90;;;4.23;;
870;SDS011;422;51.280;7.236;2023-04-03T06:44:55;7.27;;;4.63;;
870;SDS011;422;51.280;7.236;2023-04-03T06:47:22;7.30;;;4.37;;
870;SDS011;422;51.280;7.236;2023-04-03T06:49:49;6.80;;;4.40;;
870;SDS011;422;51.280;7.236;2023-04-03T06:52:16;9.80;;;4.20;;
870;SDS011;422;51.280;7.236;2023-04-03T06:54:44;7.27;;;4.70;;
870;SDS011;422;51.280;7.236;2023-04-03T06:57:11;6.53;;;4.33;;
870;SDS011;422;51.280;7.236;2023-04-03T06:59:40;6.23;;;4.10;;
870;SDS011;422;51.280;7.236;2023-04-03T07:02:08;10.93;;;4.40;;
870;SDS011;422;51.280;7.236;2023-04-03T07:04:37;6.87;;;3.87;;
870;SDS011;422;51.280;7.236;2023-04-03T07:07:05;8.13;;;3.90;;
870;SDS011;422;51.280;7.236;2023-04-03T07:09:32;6.57;;;4.03;;
870;SDS011;422;51.280;7.236;2023-04-03T07:11:59;7.90;;;3.40;;
870;SDS011;422;51.280;7.236;2023-04-03T07:14:26;6.97;;;4.37;;
870;SDS011;422;51.280;7.236;2023-04-03T07:16:55;6.87;;;3.53;;
870;SDS011;422;51.280;7.236;2023-04-03T07:19:22;7.90;;;3.90;;
870;SDS011;422;51.280;7.236;2023-04-03T07:21:53;6.47;;;4.03;;
870;SDS011;422;51.280;7.236;2023-04-03T07:24:20;7.30;;;3.57;;
870;SDS011;422;51.280;7.236;2023-04-03T07:26:48;6.47;;;4.00;;
870;SDS011;422;51.280;7.236;2023-04-03T07:29:16;6.23;;;3.00;;
870;SDS011;422;51.280;7.236;2023-04-03T07:31:43;7.40;;;3.40;;
870;SDS011;422;51.280;7.236;2023-04-03T07:34:12;7.07;;;2.80;;
870;SDS011;422;51.280;7.236;2023-04-03T07:36:39;5.20;;;3.10;;
870;SDS011;422;51.280;7.236;2023-04-03T07:39:06;5.93;;;3.37;;
870;SDS011;422;51.280;7.236;2023-04-03T07:41:34;6.83;;;3.10;;
870;SDS011;422;51.280;7.236;2023-04-03T07:44:01;6.43;;;3.40;;
870;SDS011;422;51.280;7.236;2023-04-03T07:46:29;5.30;;;3.33;;
870;SDS011;422;51.280;7.236;2023-04-03T07:48:56;7.60;;;3.73;;
870;SDS011;422;51.280;7.236;2023-04-03T07:51:25;5.70;;;3.20;;
870;SDS011;422;51.280;7.236;2023-04-03T07:53:53;7.50;;;3.10;;
870;SDS011;422;51.280;7.236;2023-04-03T07:56:20;6.43;;;4.00;;
870;SDS011;422;51.280;7.236;2023-04-03T07:58:48;5.60;;;3.80;;
870;SDS011;422;51.280;7.236;2023-04-03T08:01:15;4.47;;;3.13;;
870;SDS011;422;51.280;7.236;2023-04-03T08:03:42;8.20;;;3.10;;
870;SDS011;422;51.280;7.236;2023-04-03T08:06:09;6.33;;;3.50;;
870;SDS011;422;51.280;7.236;2023-04-03T08:08:39;5.20;;;3.23;;
870;SDS011;422;51.280;7.236;2023-04-03T08:11:06;5.20;;;2.60;;
870;SDS011;422;51.280;7.236;2023-04-03T08:13:33;6.63;;;3.23;;
870;SDS011;422;51.280;7.236;2023-04-03T08:16:06;5.57;;;2.90;;
870;SDS011;422;51.280;7.236;2023-04-03T08:18:35;8.67;;;3.53;;
870;SDS011;422;51.280;7.236;2023-04-03T08:21:05;10.80;;;3.77;;
870;SDS011;422;51.280;7.236;2023-04-03T08:23:32;4.87;;;2.80;;
870;SDS011;422;51.280;7.236;2023-04-03T08:26:06;7.40;;;3.03;;
870;SDS011;422;51.280;7.236;2023-04-03T08:28:34;4.20;;;2.97;;
870;SDS011;422;51.280;7.236;2023-04-03T08:31:04;3.60;;;3.30;;
870;SDS011;422;51.280;7.236;2023-04-03T08:33:33;5.37;;;3.30;;
870;SDS011;422;51.280;7.236;2023-04-03T08:36:01;6.17;;;2.93;;
870;SDS011;422;51.280;7.236;2023-04-03T08:38:29;5.37;;;2.90;;
870;SDS011;422;51.280;7.236;2023-04-03T08:41:00;4.07;;;2.53;;
870;SDS011;422;51.280;7.236;2023-04-03T08:43:34;3.63;;;2.70;;
870;SDS011;422;51.280;7.236;2023-04-03T08:46:05;4.20;;;2.93;;
870;SDS011;422;51.280;7.236;2023-04-03T08:48:39;6.17;;;3.27;;
870;SDS011;422;51.280;7.236;2023-04-03T08:51:10;9.17;;;2.97;;
870;SDS011;422;51.280;7.236;2023-04-03T08:53:42;4.37;;;2.70;;
870;SDS011;422;51.280;7.236;2023-04-03T08:56:12;5.83;;;3.10;;
870;SDS011;422;51.280;7.236;2023-04-03T08:58:46;5.47;;;2.90;;
870;SDS011;422;51.280;7.236;2023-04-03T09:01:19;7.57;;;2.73;;
870;SDS011;422;51.280;7.236;2023-04-03T09:03:47;4.20;;;2.50;;
870;SDS011;422;51.280;7.236;2023-04-03T09:06:15;8.67;;;3.50;;
870;SDS011;422;51.280;7.236;2023-04-03T09:08:48;4.37;;;2.80;;
870;SDS011;422;51.280;7.236;2023-04-03T09:11:21;6.37;;;3.57;;
870;SDS011;422;51.280;7.236;2023-04-03T09:13:54;4.30;;;2.50;;
870;SDS011;422;51.280;7.236;2023-04-03T09:16:28;7.20;;;2.80;;
870;SDS011;422;51.280;7.236;2023-04-03T09:19:05;3.67;;;2.73;;
870;SDS011;422;51.280;7.236;2023-04-03T09:21:42;5.63;;;3.00;;
870;SDS011;422;51.280;7.236;2023-04-03T09:24:10;3.43;;;2.40;;
870;SDS011;422;51.280;7.236;2023-04-03T09:26:41;5.93;;;3.10;;
870;SDS011;422;51.280;7.236;2023-04-03T09:29:14;4.70;;;3.00;;
870;SDS011;422;51.280;7.236;2023-04-03T09:31:48;4.60;;;2.90;;
870;SDS011;422;51.280;7.236;2023-04-03T09:34:20;7.03;;;2.80;;
870;SDS011;422;51.280;7.236;2023-04-03T09:36:52;5.43;;;2.77;;
870;SDS011;422;51.280;7.236;2023-04-03T09:39:21;4.20;;;2.90;;
870;SDS011;422;51.280;7.236;2023-04-03T09:41:59;7.63;;;2.70;;
870;SDS011;422;51.280;7.236;2023-04-03T09:44:30;7.93;;;2.77;;
870;SDS011;422;51.280;7.236;2023-04-03T09:46:58;4.77;;;2.70;;
870;SDS011;422;51.280;7.236;2023-04-03T09:49:25;3.50;;;2.60;;
870;SDS011;422;51.280;7.236;2023-04-03T09:51:53;5.07;;;2.57;;
870;SDS011;422;51.280;7.236;2023-04-03T09:54:24;5.90;;;2.60;;
870;SDS011;422;51.280;7.236;2023-04-03T09:57:06;5.03;;;2.40;;
870;SDS011;422;51.280;7.236;2023-04-03T09:59:39;4.63;;;2.27;;
870;SDS011;422;51.280;7.236;2023-04-03T10:05:04;4.13;;;2.27;;
870;SDS011;422;51.280;7.236;2023-04-03T10:07:56;4.20;;;2.70;;
870;SDS011;422;51.280;7.236;2023-04-03T10:10:35;3.40;;;2.40;;
870;SDS011;422;51.280;7.236;2023-04-03T10:13:05;3.23;;;2.33;;
870;SDS011;422;51.280;7.236;2023-04-03T10:15:36;4.37;;;1.90;;
870;SDS011;422;51.280;7.236;2023-04-03T10:18:14;4.00;;;2.13;;
870;SDS011;422;51.280;7.236;2023-04-03T10:20:55;1.93;;;1.57;;
870;SDS011;422;51.280;7.236;2023-04-03T10:23:31;3.40;;;1.70;;
870;SDS011;422;51.280;7.236;2023-04-03T10:26:08;3.47;;;2.00;;
870;SDS011;422;51.280;7.236;2023-04-03T10:28:48;2.83;;;1.80;;
870;SDS011;422;51.280;7.236;2023-04-03T10:31:26;3.93;;;1.60;;
870;SDS011;422;51.280;7.236;2023-04-03T10:34:01;2.50;;;1.97;;
870;SDS011;422;51.280;7.236;2023-04-03T10:36:37;3.53;;;2.17;;
870;SDS011;422;51.280;7.236;2023-04-03T10:39:11;2.40;;;1.90;;
870;SDS011;422;51.280;7.236;2023-04-03T10:41:48;2.93;;;2.20;;
870;SDS011;422;51.280;7.236;2023-04-03T10:44:28;4.80;;;2.23;;
870;SDS011;422;51.280;7.236;2023-04-03T10:47:06;2.80;;;2.00;;
870;SDS011;422;51.280;7.236;2023-04-03T10:49:43;3.43;;;2.10;;
870;SDS011;422;51.280;7.236;2023-04-03T10:52:18;1.97;;;1.43;;
870;SDS011;422;51.280;7.236;2023-04-03T10:54:53;2.10;;;1.90;;
870;SDS011;422;51.280;7.236;2023-04-03T10:57:28;2.13;;;1.93;;
870;SDS011;422;51.280;7.236;2023-04-03T10:59:56;2.27;;;2.07;;
870;SDS011;422;51.280;7.236;2023-04-03T11:02:29;1.93;;;1.73;;
870;SDS011;422;51.280;7.236;2023-04-03T11:05:01;2.60;;;1.60;;
870;SDS011;422;51.280;7.236;2023-04-03T11:07:32;2.80;;;2.03;;
870;SDS011;422;51.280;7.236;2023-04-03T11:10:08;3.33;;;1.87;;
870;SDS011;422;51.280;7.236;2023-04-03T11:12:41;2.90;;;2.20;;
870;SDS011;422;51.280;7.236;2023-04-03T11:15:11;3.83;;;2.00;;
870;SDS011;422;51.280;7.236;2023-04-03T11:17:43;2.43;;;2.00;;
870;SDS011;422;51.280;7.236;2023-04-03T11:20:17;4.37;;;2.27;;
870;SDS011;422;51.280;7.236;2023-04-03T11:22:47;1.73;;;1.60;;
870;SDS011;422;51.280;7.236;2023-04-03T11:25:19;4.40;;;2.40;;
870;SDS011;422;51.280;7.236;2023-04-03T11:27:49;3.20;;;1.67;;
870;SDS011;422;51.280;7.236;2023-04-03T11:30:22;3.10;;;2.00;;
870;SDS011;422;51.280;7.236;2023-04-03T11:35:51;2.67;;;2.20;;
870;SDS011;422;51.280;7.236;2023-04-03T11:38:23;4.90;;;2.33;;
870;SDS011;422;51.280;7.236;2023-04-03T11:40:54;2.90;;;2.17;;
870;SDS011;422;51.280;7.236;2023-04-03T11:43:24;2.63;;;2.13;;
870;SDS011;422;51.280;7.236;2023-04-03T11:45:56;2.83;;;2.50;;
870;SDS011;422;51.280;7.236;2023-04-03T11:51:41;3.57;;;2.20;;
870;SDS011;422;51.280;7.236;2023-04-03T12:03:35;5.10;;;1.97;;
870;SDS011;422;51.280;7.236;2023-04-03T12:12:57;2.47;;;1.50;;
870;SDS011;422;51.280;7.236;2023-04-03T12:24:26;3.37;;;2.40;;
870;SDS011;422;51.280;7.236;2023-04-03T12:27:03;2.30;;;2.00;;
870;SDS011;422;51.280;7.236;2023-04-03T12:29:42;2.87;;;1.87;;
870;SDS011;422;51.280;7.236;2023-04-03T12:32:17;3.13;;;2.20;;
870;SDS011;422;51.280;7.236;2023-04-03T12:34:59;3.20;;;2.33;;
870;SDS011;422;51.280;7.236;2023-04-03T12:37:39;3.40;;;2.40;;
870;SDS011;422;51.280;7.236;2023-04-03T12:40:21;3.20;;;2.17;;
870;SDS011;422;51.280;7.236;2023-04-03T12:43:02;4.17;;;2.00;;
870;SDS011;422;51.280;7.236;2023-04-03T12:45:41;3.03;;;2.10;;
870;SDS011;422;51.280;7.236;2023-04-03T12:48:14;2.57;;;2.00;;
870;SDS011;422;51.280;7.236;2023-04-03T12:50:44;4.90;;;2.60;;
870;SDS011;422;51.280;7.236;2023-04-03T12:53:13;2.60;;;2.00;;
870;SDS011;422;51.280;7.236;2023-04-03T12:55:44;3.03;;;2.50;;
870;SDS011;422;51.280;7.236;2023-04-03T12:58:19;2.90;;;2.60;;
870;SDS011;422;51.280;7.236;2023-04-03T13:00:58;3.37;;;2.00;;
870;SDS011;422;51.280;7.236;2023-04-03T13:03:27;5.33;;;2.67;;
870;SDS011;422;51.280;7.236;2023-04-03T13:05:55;2.80;;;2.33;;
870;SDS011;422;51.280;7.236;2023-04-03T13:08:25;3.47;;;2.30;;
870;SDS011;422;51.280;7.236;2023-04-03T13:10:55;3.80;;;2.40;;
870;SDS011;422;51.280;7.236;2023-04-03T13:13:27;2.70;;;2.23;;
870;SDS011;422;51.280;7.236;2023-04-03T13:15:54;4.23;;;2.40;;
870;SDS011;422;51.280;7.236;2023-04-03T13:18:23;2.30;;;2.10;;
870;SDS011;422;51.280;7.236;2023-04-03T13:20:52;2.80;;;2.10;;
870;SDS011;422;51.280;7.236;2023-04-03T13:23:23;3.10;;;2.80;;
870;SDS011;422;51.280;7.236;2023-04-03T13:25:51;4.03;;;2.10;;
870;SDS011;422;51.280;7.236;2023-04-03T13:28:19;4.90;;;2.57;;
870;SDS011;422;51.280;7.236;2023-04-03T13:31:03;3.63;;;2.10;;
870;SDS011;422;51.280;7.236;2023-04-03T13:33:36;2.77;;;2.57;;
870;SDS011;422;51.280;7.236;2023-04-03T13:36:05;2.83;;;2.47;;
870;SDS011;422;51.280;7.236;2023-04-03T13:38:37;3.80;;;2.70;;
870;SDS011;422;51.280;7.236;2023-04-03T13:41:20;2.93;;;2.60;;
870;SDS011;422;51.280;7.236;2023-04-03T13:43:49;3.07;;;2.40;;
870;SDS011;422;51.280;7.236;2023-04-03T13:46:24;2.57;;;2.37;;
870;SDS011;422;51.280;7.236;2023-04-03T13:48:53;3.07;;;2.30;;
870;SDS011;422;51.280;7.236;2023-04-03T13:51:23;3.20;;;2.50;;
870;SDS011;422;51.280;7.236;2023-04-03T13:53:52;3.13;;;2.80;;
870;SDS011;422;51.280;7.236;2023-04-03T13:56:24;3.57;;;2.47;;
870;SDS011;422;51.280;7.236;2023-04-03T13:58:55;3.50;;;2.87;;
870;SDS011;422;51.280;7.236;2023-04-03T14:01:32;3.30;;;2.07;;
870;SDS011;422;51.280;7.236;2023-04-03T14:04:11;2.60;;;2.10;;
870;SDS011;422;51.280;7.236;2023-04-03T14:06:41;2.67;;;2.47;;
870;SDS011;422;51.280;7.236;2023-04-03T14:09:08;3.57;;;2.60;;
870;SDS011;422;51.280;7.236;2023-04-03T14:11:36;3.83;;;2.30;;
870;SDS011;422;51.280;7.236;2023-04-03T14:14:06;4.00;;;2.80;;
870;SDS011;422;51.280;7.236;2023-04-03T14:16:42;4.70;;;2.80;;
870;SDS011;422;51.280;7.236;2023-04-03T14:19:14;4.13;;;2.20;;
870;SDS011;422;51.280;7.236;2023-04-03T14:21:46;2.73;;;2.37;;
870;SDS011;422;51.280;7.236;2023-04-03T14:24:13;2.57;;;2.00;;
870;SDS011;422;51.280;7.236;2023-04-03T14:26:41;3.50;;;2.47;;
870;SDS011;422;51.280;7.236;2023-04-03T14:29:10;4.73;;;2.67;;
870;SDS011;422;51.280;7.236;2023-04-03T14:31:40;3.63;;;2.63;;
870;SDS011;422;51.280;7.236;2023-04-03T14:34:08;3.70;;;2.17;;
870;SDS011;422;51.280;7.236;2023-04-03T14:36:37;6.63;;;3.03;;
870;SDS011;422;51.280;7.236;2023-04-03T14:39:06;2.37;;;1.90;;
870;SDS011;422;51.280;7.236;2023-04-03T14:41:34;3.63;;;2.90;;
870;SDS011;422;51.280;7.236;2023-04-03T14:44:01;3.40;;;2.37;;
870;SDS011;422;51.280;7.236;2023-04-03T14:46:29;3.27;;;2.10;;
870;SDS011;422;51.280;7.236;2023-04-03T14:49:00;2.80;;;2.33;;
870;SDS011;422;51.280;7.236;2023-04-03T14:51:27;4.90;;;2.37;;
870;SDS011;422;51.280;7.236;2023-04-03T14:53:54;2.63;;;2.03;;
870;SDS011;422;51.280;7.236;2023-04-03T14:56:23;5.63;;;2.27;;
870;SDS011;422;51.280;7.236;2023-04-03T14:58:54;3.87;;;2.40;;
870;SDS011;422;51.280;7.236;2023-04-03T15:01:23;4.90;;;2.07;;
870;SDS011;422;51.280;7.236;2023-04-03T15:03:51;4.33;;;2.90;;
870;SDS011;422;51.280;7.236;2023-04-03T15:06:19;3.00;;;2.30;;
870;SDS011;422;51.280;7.236;2023-04-03T15:08:47;3.77;;;2.30;;
870;SDS011;422;51.280;7.236;2023-04-03T15:11:14;4.30;;;3.00;;
870;SDS011;422;51.280;7.236;2023-04-03T15:13:42;4.20;;;2.53;;
870;SDS011;422;51.280;7.236;2023-04-03T15:16:13;2.90;;;2.43;;
870;SDS011;422;51.280;7.236;2023-04-03T15:18:42;5.30;;;2.33;;
870;SDS011;422;51.280;7.236;2023-04-03T15:21:10;4.87;;;2.10;;
870;SDS011;422;51.280;7.236;2023-04-03T15:23:38;3.73;;;2.30;;
870;SDS011;422;51.280;7.236;2023-04-03T15:26:07;3.80;;;2.10;;
870;SDS011;422;51.280;7.236;2023-04-03T15:28:35;4.10;;;2.80;;
870;SDS011;422;51.280;7.236;2023-04-03T15:31:05;4.63;;;2.47;;
870;SDS011;422;51.280;7.236;2023-04-03T15:33:32;5.23;;;2.67;;
870;SDS011;422;51.280;7.236;2023-04-03T15:36:01;3.37;;;2.97;;
870;SDS011;422;51.280;7.236;2023-04-03T15:38:28;5.43;;;2.90;;
870;SDS011;422;51.280;7.236;2023-04-03T15:40:57;3.40;;;2.50;;
870;SDS011;422;51.280;7.236;2023-04-03T15:43:24;4.80;;;2.17;;
870;SDS011;422;51.280;7.236;2023-04-03T15:45:52;5.07;;;2.67;;
870;SDS011;422;51.280;7.236;2023-04-03T15:48:22;4.00;;;2.80;;
870;SDS011;422;51.280;7.236;2023-04-03T15:50:49;4.47;;;2.97;;
870;SDS011;422;51.280;7.236;2023-04-03T15:53:17;3.73;;;2.63;;
870;SDS011;422;51.280;7.236;2023-04-03T15:55:44;3.67;;;2.30;;
870;SDS011;422;51.280;7.236;2023-04-03T15:58:13;3.17;;;2.00;;
870;SDS011;422;51.280;7.236;2023-04-03T16:00:40;3.30;;;2.60;;
870;SDS011;422;51.280;7.236;2023-04-03T16:03:08;3.50;;;2.27;;
870;SDS011;422;51.280;7.236;2023-04-03T16:05:37;6.47;;;2.50;;
870;SDS011;422;51.280;7.236;2023-04-03T16:08:06;4.60;;;2.90;;
870;SDS011;422;51.280;7.236;2023-04-03T16:10:34;4.70;;;2.70;;
870;SDS011;422;51.280;7.236;2023-04-03T16:13:02;4.33;;;2.20;;
870;SDS011;422;51.280;7.236;2023-04-03T16:15:32;3.87;;;2.20;;
870;SDS011;422;51.280;7.236;2023-04-03T16:18:00;3.50;;;2.13;;
870;SDS011;422;51.280;7.236;2023-04-03T16:20:28;3.43;;;2.37;;
870;SDS011;422;51.280;7.236;2023-04-03T16:22:56;5.30;;;2.50;;
870;SDS011;422;51.280;7.236;2023-04-03T16:25:25;4.37;;;2.80;;
870;SDS011;422;51.280;7.236;2023-04-03T16:27:52;3.90;;;2.60;;